WXM80 ListenWXM80 Stop

You find our weather info also at:

UK Metoffice

WeatherCloud

Weather Underground

Northeastern Weather Network

AWEKAS

Citizen Weather Observer Program (CWOP)

HAMweather, WeatherForYou, PWS Weather


Weather Underground History page Text

Daily Summary for May 18, 2017 Units:  Both    English   Metric
« Previous Day
Next Day »
Daily Weekly Monthly Yearly Custom
  High: Low: Average:
Temperature: 97.3 °F /  36.3 °C 72.7 °F /  22.6 °C 83.4 °F /  28.6 °C
Dew Point: 72.0 °F /  22.2 °C 62.6 °F /  17 °C 66.4 °F /  19.1 °C
Humidity: 79 % 34 % 59 %
Wind Speed: 10.0 mph /  16.1 km/h - 3.2 mph /  5.1 km/h
Wind Gust: 20.0 mph /  32.2 km/h - -
Wind:- - SW
Pressure: 29.91 in /  1012.8 hPa 29.77 in /  1008 hPa -
Precipitation: 0.00 in /  0 mm    
Historical Graphs
 
 
Tabular Data for May 18, 2017
Time Temperature Dew Point Pressure Wind Wind Speed Wind Gust Humidity Rainfall Rate (Hourly)
00:00 76.4 °F /  24.7 °C 66.3 °F /  19.1 °C 29.88 in /  1011.7 hPa SW 2.3 mph /  3.7 km/h 3.5 mph /  5.6 km/h 71 % 0.00 in /  0 mm
00:05 76.4 °F /  24.7 °C 66.3 °F /  19.1 °C 29.88 in /  1011.7 hPa SSW 3.6 mph /  5.8 km/h 9.2 mph /  14.8 km/h 71 % 0.00 in /  0 mm
00:10 76.5 °F /  24.7 °C 66.4 °F /  19.1 °C 29.88 in /  1011.7 hPa WSW 2.1 mph /  3.4 km/h 3.5 mph /  5.6 km/h 71 % 0.00 in /  0 mm
00:15 76.4 °F /  24.7 °C 66.3 °F /  19.1 °C 29.88 in /  1011.7 hPa SW 2.1 mph /  3.4 km/h 9.2 mph /  14.8 km/h 71 % 0.00 in /  0 mm
00:20 76.4 °F /  24.7 °C 66.3 °F /  19.1 °C 29.88 in /  1011.7 hPa SSW 3.7 mph /  6 km/h 5.8 mph /  9.3 km/h 71 % 0.00 in /  0 mm
00:25 76.5 °F /  24.7 °C 66.4 °F /  19.1 °C 29.88 in /  1011.7 hPa SW 3.6 mph /  5.8 km/h 6.9 mph /  11.1 km/h 71 % 0.00 in /  0 mm
00:30 76.5 °F /  24.7 °C 66.4 °F /  19.1 °C 29.88 in /  1011.7 hPa SSW 4.1 mph /  6.6 km/h 6.9 mph /  11.1 km/h 71 % 0.00 in /  0 mm
00:35 76.5 °F /  24.7 °C 66.0 °F /  18.9 °C 29.88 in /  1011.7 hPa SSW 3.4 mph /  5.5 km/h 6.9 mph /  11.1 km/h 70 % 0.00 in /  0 mm
00:40 76.6 °F /  24.8 °C 66.1 °F /  18.9 °C 29.87 in /  1011.4 hPa SSW 2.2 mph /  3.5 km/h 9.2 mph /  14.8 km/h 70 % 0.00 in /  0 mm
00:45 76.7 °F /  24.8 °C 66.2 °F /  19 °C 29.88 in /  1011.7 hPa SW 1.6 mph /  2.6 km/h 4.0 mph /  6.4 km/h 70 % 0.00 in /  0 mm
00:50 76.9 °F /  24.9 °C 66.0 °F /  18.9 °C 29.87 in /  1011.4 hPa SW 3.1 mph /  5 km/h 5.8 mph /  9.3 km/h 69 % 0.00 in /  0 mm
00:55 77.0 °F /  25 °C 66.0 °F /  18.9 °C 29.87 in /  1011.4 hPa SSW 4.4 mph /  7.1 km/h 9.2 mph /  14.8 km/h 69 % 0.00 in /  0 mm
01:00 77.2 °F /  25.1 °C 66.2 °F /  19 °C 29.87 in /  1011.4 hPa SW 1.8 mph /  2.9 km/h 3.5 mph /  5.6 km/h 69 % 0.00 in /  0 mm
01:06 77.3 °F /  25.2 °C 66.3 °F /  19.1 °C 29.87 in /  1011.4 hPa WSW 1.1 mph /  1.8 km/h 4.6 mph /  7.4 km/h 69 % 0.00 in /  0 mm
01:11 77.4 °F /  25.2 °C 66.4 °F /  19.1 °C 29.87 in /  1011.4 hPa SSW 5.9 mph /  9.5 km/h 6.9 mph /  11.1 km/h 69 % 0.00 in /  0 mm
01:16 77.5 °F /  25.3 °C 66.1 °F /  18.9 °C 29.87 in /  1011.4 hPa SW 5.0 mph /  8 km/h 10.0 mph /  16.1 km/h 68 % 0.00 in /  0 mm
01:21 77.6 °F /  25.3 °C 66.2 °F /  19 °C 29.86 in /  1011.1 hPa WSW 2.0 mph /  3.2 km/h 6.0 mph /  9.7 km/h 68 % 0.00 in /  0 mm
01:26 77.7 °F /  25.4 °C 66.3 °F /  19.1 °C 29.86 in /  1011.1 hPa WSW 3.0 mph /  4.8 km/h 12.0 mph /  19.3 km/h 68 % 0.00 in /  0 mm
01:31 77.7 °F /  25.4 °C 66.3 °F /  19.1 °C 29.86 in /  1011.1 hPa SW 2.0 mph /  3.2 km/h 6.0 mph /  9.7 km/h 68 % 0.00 in /  0 mm
01:36 77.8 °F /  25.4 °C 66.4 °F /  19.1 °C 29.86 in /  1011.1 hPa SW 1.0 mph /  1.6 km/h 7.0 mph /  11.3 km/h 68 % 0.00 in /  0 mm
01:41 77.8 °F /  25.4 °C 66.4 °F /  19.1 °C 29.86 in /  1011.1 hPa SW 3.0 mph /  4.8 km/h 9.0 mph /  14.5 km/h 68 % 0.00 in /  0 mm
01:46 77.8 °F /  25.4 °C 66.4 °F /  19.1 °C 29.86 in /  1011.1 hPa SW 1.2 mph /  1.9 km/h 5.8 mph /  9.3 km/h 68 % 0.00 in /  0 mm
01:51 77.9 °F /  25.5 °C 66.5 °F /  19.2 °C 29.86 in /  1011.1 hPa SW 3.0 mph /  4.8 km/h 8.0 mph /  12.9 km/h 68 % 0.00 in /  0 mm
01:56 77.8 °F /  25.4 °C 66.8 °F /  19.3 °C 29.86 in /  1011.1 hPa West 3.6 mph /  5.8 km/h 11.5 mph /  18.5 km/h 69 % 0.00 in /  0 mm
02:01 77.8 °F /  25.4 °C 66.8 °F /  19.3 °C 29.86 in /  1011.1 hPa SW 2.8 mph /  4.5 km/h 6.0 mph /  9.7 km/h 69 % 0.00 in /  0 mm
02:06 77.7 °F /  25.4 °C 66.7 °F /  19.3 °C 29.86 in /  1011.1 hPa WSW 2.0 mph /  3.2 km/h 8.0 mph /  12.9 km/h 69 % 0.00 in /  0 mm
02:11 77.6 °F /  25.3 °C 66.6 °F /  19.2 °C 29.86 in /  1011.1 hPa SW 2.0 mph /  3.2 km/h 6.0 mph /  9.7 km/h 69 % 0.00 in /  0 mm
02:16 77.6 °F /  25.3 °C 67.0 °F /  19.4 °C 29.86 in /  1011.1 hPa SW 5.0 mph /  8 km/h 7.0 mph /  11.3 km/h 70 % 0.00 in /  0 mm
02:21 77.5 °F /  25.3 °C 66.9 °F /  19.4 °C 29.86 in /  1011.1 hPa SW 2.0 mph /  3.2 km/h 8.0 mph /  12.9 km/h 70 % 0.00 in /  0 mm
02:26 77.4 °F /  25.2 °C 66.8 °F /  19.3 °C 29.86 in /  1011.1 hPa SW 3.0 mph /  4.8 km/h 6.0 mph /  9.7 km/h 70 % 0.00 in /  0 mm
02:31 77.2 °F /  25.1 °C 66.7 °F /  19.3 °C 29.86 in /  1011.1 hPa WSW 3.2 mph /  5.1 km/h 6.9 mph /  11.1 km/h 70 % 0.00 in /  0 mm
02:35 77.1 °F /  25.1 °C 66.6 °F /  19.2 °C 29.86 in /  1011.1 hPa WSW 0.3 mph /  0.5 km/h 1.2 mph /  1.9 km/h 70 % 0.00 in /  0 mm
02:41 77.0 °F /  25 °C 66.9 °F /  19.4 °C 29.86 in /  1011.1 hPa SW 2.2 mph /  3.5 km/h 4.6 mph /  7.4 km/h 71 % 0.00 in /  0 mm
02:46 76.8 °F /  24.9 °C 66.7 °F /  19.3 °C 29.86 in /  1011.1 hPa SW 2.2 mph /  3.5 km/h 3.5 mph /  5.6 km/h 71 % 0.00 in /  0 mm
02:51 76.7 °F /  24.8 °C 66.6 °F /  19.2 °C 29.85 in /  1010.7 hPa WSW 2.0 mph /  3.2 km/h 6.0 mph /  9.7 km/h 71 % 0.00 in /  0 mm
02:56 76.6 °F /  24.8 °C 66.5 °F /  19.2 °C 29.86 in /  1011.1 hPa WSW 3.1 mph /  5 km/h 6.9 mph /  11.1 km/h 71 % 0.00 in /  0 mm
02:59 76.5 °F /  24.7 °C 66.4 °F /  19.1 °C 29.86 in /  1011.1 hPa WSW 2.1 mph /  3.4 km/h 5.8 mph /  9.3 km/h 71 % 0.00 in /  0 mm
03:04 76.4 °F /  24.7 °C 66.3 °F /  19.1 °C 29.86 in /  1011.1 hPa SW 3.8 mph /  6.1 km/h 10.4 mph /  16.7 km/h 71 % 0.00 in /  0 mm
03:09 76.3 °F /  24.6 °C 66.6 °F /  19.2 °C 29.86 in /  1011.1 hPa SW 4.5 mph /  7.2 km/h 6.0 mph /  9.7 km/h 72 % 0.00 in /  0 mm
03:14 76.2 °F /  24.6 °C 66.5 °F /  19.2 °C 29.86 in /  1011.1 hPa SW 2.9 mph /  4.7 km/h 6.9 mph /  11.1 km/h 72 % 0.00 in /  0 mm
03:19 76.2 °F /  24.6 °C 66.1 °F /  18.9 °C 29.86 in /  1011.1 hPa SW 6.0 mph /  9.7 km/h 11.5 mph /  18.5 km/h 71 % 0.00 in /  0 mm
03:24 76.2 °F /  24.6 °C 66.1 °F /  18.9 °C 29.86 in /  1011.1 hPa WSW 4.5 mph /  7.2 km/h 6.9 mph /  11.1 km/h 71 % 0.00 in /  0 mm
03:25 76.2 °F /  24.6 °C 66.1 °F /  18.9 °C 29.86 in /  1011.1 hPa SW 3.9 mph /  6.3 km/h 8.1 mph /  13 km/h 71 % 0.00 in /  0 mm
03:30 76.2 °F /  24.6 °C 66.1 °F /  18.9 °C 29.86 in /  1011.1 hPa SW 2.5 mph /  4 km/h 8.1 mph /  13 km/h 71 % 0.00 in /  0 mm
03:35 76.2 °F /  24.6 °C 66.1 °F /  18.9 °C 29.86 in /  1011.1 hPa WSW 5.2 mph /  8.4 km/h 5.2 mph /  8.4 km/h 71 % 0.00 in /  0 mm
03:40 76.2 °F /  24.6 °C 66.1 °F /  18.9 °C 29.86 in /  1011.1 hPa SW 3.0 mph /  4.8 km/h 4.6 mph /  7.4 km/h 71 % 0.00 in /  0 mm
03:45 76.1 °F /  24.5 °C 66.4 °F /  19.1 °C 29.86 in /  1011.1 hPa SW 2.0 mph /  3.2 km/h 4.6 mph /  7.4 km/h 72 % 0.00 in /  0 mm
03:50 76.0 °F /  24.4 °C 66.3 °F /  19.1 °C 29.87 in /  1011.4 hPa WSW 3.0 mph /  4.8 km/h 9.2 mph /  14.8 km/h 72 % 0.00 in /  0 mm
03:55 76.0 °F /  24.4 °C 66.3 °F /  19.1 °C 29.87 in /  1011.4 hPa WSW 1.0 mph /  1.6 km/h 6.9 mph /  11.1 km/h 72 % 0.00 in /  0 mm
04:00 75.9 °F /  24.4 °C 66.2 °F /  19 °C 29.87 in /  1011.4 hPa SW 3.8 mph /  6.1 km/h 4.6 mph /  7.4 km/h 72 % 0.00 in /  0 mm
04:05 75.8 °F /  24.3 °C 66.1 °F /  18.9 °C 29.87 in /  1011.4 hPa WSW 2.0 mph /  3.2 km/h 3.5 mph /  5.6 km/h 72 % 0.00 in /  0 mm
04:11 75.7 °F /  24.3 °C 66.0 °F /  18.9 °C 29.87 in /  1011.4 hPa West 4.3 mph /  6.9 km/h 5.8 mph /  9.3 km/h 72 % 0.00 in /  0 mm
04:16 75.5 °F /  24.2 °C 66.2 °F /  19 °C 29.87 in /  1011.4 hPa SW 3.5 mph /  5.6 km/h 3.5 mph /  5.6 km/h 73 % 0.00 in /  0 mm
04:18 75.4 °F /  24.1 °C 66.1 °F /  18.9 °C 29.87 in /  1011.4 hPa SSW 0.7 mph /  1.1 km/h 4.6 mph /  7.4 km/h 73 % 0.00 in /  0 mm
04:23 75.3 °F /  24.1 °C 66.0 °F /  18.9 °C 29.87 in /  1011.4 hPa SSW 2.8 mph /  4.5 km/h 5.0 mph /  8 km/h 73 % 0.00 in /  0 mm
04:28 75.2 °F /  24 °C 65.9 °F /  18.8 °C 29.87 in /  1011.4 hPa WSW 2.1 mph /  3.4 km/h 3.5 mph /  5.6 km/h 73 % 0.00 in /  0 mm
04:33 75.1 °F /  23.9 °C 65.9 °F /  18.8 °C 29.87 in /  1011.4 hPa SSW 1.1 mph /  1.8 km/h 3.5 mph /  5.6 km/h 73 % 0.00 in /  0 mm
04:39 75.0 °F /  23.9 °C 66.1 °F /  18.9 °C 29.87 in /  1011.4 hPa SW 1.2 mph /  1.9 km/h 3.5 mph /  5.6 km/h 74 % 0.00 in /  0 mm
04:44 74.9 °F /  23.8 °C 66.1 °F /  18.9 °C 29.88 in /  1011.7 hPa SSW 3.1 mph /  5 km/h 5.0 mph /  8 km/h 74 % 0.00 in /  0 mm
04:49 74.8 °F /  23.8 °C 66.0 °F /  18.9 °C 29.88 in /  1011.7 hPa WSW 0.7 mph /  1.1 km/h 3.5 mph /  5.6 km/h 74 % 0.00 in /  0 mm
04:54 74.6 °F /  23.7 °C 66.1 °F /  18.9 °C 29.88 in /  1011.7 hPa SW 1.4 mph /  2.3 km/h 4.6 mph /  7.4 km/h 75 % 0.00 in /  0 mm
04:59 74.5 °F /  23.6 °C 66.1 °F /  18.9 °C 29.88 in /  1011.7 hPa WSW 0.2 mph /  0.3 km/h 2.3 mph /  3.7 km/h 75 % 0.00 in /  0 mm
05:04 74.3 °F /  23.5 °C 66.2 °F /  19 °C 29.88 in /  1011.7 hPa WSW 2.3 mph /  3.7 km/h 3.5 mph /  5.6 km/h 76 % 0.00 in /  0 mm
05:09 74.1 °F /  23.4 °C 66.0 °F /  18.9 °C 29.88 in /  1011.7 hPa WSW 3.0 mph /  4.8 km/h 4.6 mph /  7.4 km/h 76 % 0.00 in /  0 mm
05:14 74.0 °F /  23.3 °C 66.0 °F /  18.9 °C 29.88 in /  1011.7 hPa SW 2.1 mph /  3.4 km/h 4.0 mph /  6.4 km/h 76 % 0.00 in /  0 mm
05:19 73.9 °F /  23.3 °C 66.2 °F /  19 °C 29.88 in /  1011.7 hPa WSW 1.3 mph /  2.1 km/h 3.5 mph /  5.6 km/h 77 % 0.00 in /  0 mm
05:24 73.7 °F /  23.2 °C 66.0 °F /  18.9 °C 29.88 in /  1011.7 hPa SW 2.3 mph /  3.7 km/h 4.0 mph /  6.4 km/h 77 % 0.00 in /  0 mm
05:29 73.6 °F /  23.1 °C 65.9 °F /  18.8 °C 29.88 in /  1011.7 hPa SSW 2.7 mph /  4.3 km/h 3.5 mph /  5.6 km/h 77 % 0.00 in /  0 mm
05:34 73.4 °F /  23 °C 65.7 °F /  18.7 °C 29.88 in /  1011.7 hPa SW 1.5 mph /  2.4 km/h 4.0 mph /  6.4 km/h 77 % 0.00 in /  0 mm
05:39 73.3 °F /  22.9 °C 65.7 °F /  18.7 °C 29.88 in /  1011.7 hPa SSW 2.6 mph /  4.2 km/h 5.8 mph /  9.3 km/h 77 % 0.00 in /  0 mm
05:44 73.3 °F /  22.9 °C 66.0 °F /  18.9 °C 29.88 in /  1011.7 hPa WSW 1.2 mph /  1.9 km/h 2.3 mph /  3.7 km/h 78 % 0.00 in /  0 mm
05:49 73.2 °F /  22.9 °C 65.6 °F /  18.7 °C 29.88 in /  1011.7 hPa SW 0.5 mph /  0.8 km/h 2.3 mph /  3.7 km/h 77 % 0.00 in /  0 mm
05:54 73.2 °F /  22.9 °C 65.9 °F /  18.8 °C 29.88 in /  1011.7 hPa WSW 2.2 mph /  3.5 km/h 4.0 mph /  6.4 km/h 78 % 0.00 in /  0 mm
05:59 73.1 °F /  22.8 °C 65.8 °F /  18.8 °C 29.89 in /  1012.1 hPa SW 1.2 mph /  1.9 km/h 3.5 mph /  5.6 km/h 78 % 0.00 in /  0 mm
06:04 73.0 °F /  22.8 °C 65.7 °F /  18.7 °C 29.89 in /  1012.1 hPa SW 0.9 mph /  1.4 km/h 2.3 mph /  3.7 km/h 78 % 0.00 in /  0 mm
06:09 73.0 °F /  22.8 °C 65.7 °F /  18.7 °C 29.89 in /  1012.1 hPa SSW 0.5 mph /  0.8 km/h 2.3 mph /  3.7 km/h 78 % 0.00 in /  0 mm
06:14 72.9 °F /  22.7 °C 65.6 °F /  18.7 °C 29.89 in /  1012.1 hPa SW 3.8 mph /  6.1 km/h 4.6 mph /  7.4 km/h 78 % 0.00 in /  0 mm
06:19 72.9 °F /  22.7 °C 65.6 °F /  18.7 °C 29.89 in /  1012.1 hPa SSW 3.8 mph /  6.1 km/h 5.8 mph /  9.3 km/h 78 % 0.00 in /  0 mm
06:24 72.8 °F /  22.7 °C 65.5 °F /  18.6 °C 29.89 in /  1012.1 hPa WSW 1.5 mph /  2.4 km/h 3.5 mph /  5.6 km/h 78 % 0.00 in /  0 mm
06:29 72.7 °F /  22.6 °C 65.8 °F /  18.8 °C 29.89 in /  1012.1 hPa SW 1.4 mph /  2.3 km/h 3.5 mph /  5.6 km/h 79 % 0.00 in /  0 mm
06:34 72.8 °F /  22.7 °C 65.9 °F /  18.8 °C 29.89 in /  1012.1 hPa SW 2.7 mph /  4.3 km/h 3.0 mph /  4.8 km/h 79 % 0.00 in /  0 mm
06:39 72.8 °F /  22.7 °C 65.9 °F /  18.8 °C 29.89 in /  1012.1 hPa SW 2.5 mph /  4 km/h 3.5 mph /  5.6 km/h 79 % 0.00 in /  0 mm
06:45 73.0 °F /  22.8 °C 66.1 °F /  18.9 °C 29.89 in /  1012.1 hPa WSW 2.4 mph /  3.9 km/h 5.8 mph /  9.3 km/h 79 % 0.00 in /  0 mm
06:50 73.3 °F /  22.9 °C 66.4 °F /  19.1 °C 29.89 in /  1012.1 hPa WSW 2.0 mph /  3.2 km/h 8.1 mph /  13 km/h 79 % 0.00 in /  0 mm
06:55 73.8 °F /  23.2 °C 66.5 °F /  19.2 °C 29.89 in /  1012.1 hPa SW 3.7 mph /  6 km/h 10.4 mph /  16.7 km/h 78 % 0.00 in /  0 mm
07:00 74.3 °F /  23.5 °C 67.0 °F /  19.4 °C 29.89 in /  1012.1 hPa WSW 3.3 mph /  5.3 km/h 8.1 mph /  13 km/h 78 % 0.00 in /  0 mm
07:05 74.8 °F /  23.8 °C 67.1 °F /  19.5 °C 29.89 in /  1012.1 hPa WSW 4.8 mph /  7.7 km/h 9.2 mph /  14.8 km/h 77 % 0.00 in /  0 mm
07:10 75.3 °F /  24.1 °C 67.6 °F /  19.8 °C 29.90 in /  1012.4 hPa WSW 4.0 mph /  6.4 km/h 8.1 mph /  13 km/h 77 % 0.00 in /  0 mm
07:15 75.6 °F /  24.2 °C 67.5 °F /  19.7 °C 29.90 in /  1012.4 hPa West 4.2 mph /  6.8 km/h 8.1 mph /  13 km/h 76 % 0.00 in /  0 mm
07:20 75.8 °F /  24.3 °C 67.3 °F /  19.6 °C 29.90 in /  1012.4 hPa SW 2.2 mph /  3.5 km/h 4.0 mph /  6.4 km/h 75 % 0.00 in /  0 mm
07:25 76.0 °F /  24.4 °C 67.5 °F /  19.7 °C 29.90 in /  1012.4 hPa SSW 2.5 mph /  4 km/h 4.6 mph /  7.4 km/h 75 % 0.00 in /  0 mm
07:30 76.1 °F /  24.5 °C 67.2 °F /  19.6 °C 29.90 in /  1012.4 hPa SSW 2.7 mph /  4.3 km/h 5.8 mph /  9.3 km/h 74 % 0.00 in /  0 mm
07:35 76.3 °F /  24.6 °C 67.4 °F /  19.7 °C 29.90 in /  1012.4 hPa SSW 2.2 mph /  3.5 km/h 4.0 mph /  6.4 km/h 74 % 0.00 in /  0 mm
07:40 76.5 °F /  24.7 °C 67.6 °F /  19.8 °C 29.91 in /  1012.8 hPa West 1.9 mph /  3.1 km/h 6.9 mph /  11.1 km/h 74 % 0.00 in /  0 mm
07:45 76.7 °F /  24.8 °C 67.8 °F /  19.9 °C 29.91 in /  1012.8 hPa WSW 3.9 mph /  6.3 km/h 6.9 mph /  11.1 km/h 74 % 0.00 in /  0 mm
07:50 76.9 °F /  24.9 °C 68.0 °F /  20 °C 29.91 in /  1012.8 hPa SW 4.4 mph /  7.1 km/h 6.9 mph /  11.1 km/h 74 % 0.00 in /  0 mm
07:56 77.1 °F /  25.1 °C 67.8 °F /  19.9 °C 29.91 in /  1012.8 hPa West 3.2 mph /  5.1 km/h 5.0 mph /  8 km/h 73 % 0.00 in /  0 mm
08:01 77.3 °F /  25.2 °C 68.0 °F /  20 °C 29.91 in /  1012.8 hPa SSW 3.3 mph /  5.3 km/h 4.0 mph /  6.4 km/h 73 % 0.00 in /  0 mm
08:06 77.5 °F /  25.3 °C 68.2 °F /  20.1 °C 29.91 in /  1012.8 hPa WSW 1.0 mph /  1.6 km/h 6.0 mph /  9.7 km/h 73 % 0.00 in /  0 mm
08:11 77.8 °F /  25.4 °C 68.4 °F /  20.2 °C 29.91 in /  1012.8 hPa WSW 2.0 mph /  3.2 km/h 7.0 mph /  11.3 km/h 73 % 0.00 in /  0 mm
08:16 78.0 °F /  25.6 °C 68.3 °F /  20.2 °C 29.91 in /  1012.8 hPa SW 3.0 mph /  4.8 km/h 7.0 mph /  11.3 km/h 72 % 0.00 in /  0 mm
08:21 78.4 °F /  25.8 °C 68.2 °F /  20.1 °C 29.91 in /  1012.8 hPa WSW 1.9 mph /  3.1 km/h 9.0 mph /  14.5 km/h 71 % 0.00 in /  0 mm
08:26 78.7 °F /  25.9 °C 68.5 °F /  20.3 °C 29.91 in /  1012.8 hPa SW 3.0 mph /  4.8 km/h 7.0 mph /  11.3 km/h 71 % 0.00 in /  0 mm
08:31 79.0 °F /  26.1 °C 68.8 °F /  20.4 °C 29.91 in /  1012.8 hPa WSW 1.0 mph /  1.6 km/h 7.0 mph /  11.3 km/h 71 % 0.00 in /  0 mm
08:36 79.3 °F /  26.3 °C 69.5 °F /  20.8 °C 29.91 in /  1012.8 hPa West 0.8 mph /  1.3 km/h 3.5 mph /  5.6 km/h 72 % 0.00 in /  0 mm
08:41 79.6 °F /  26.4 °C 69.0 °F /  20.6 °C 29.91 in /  1012.8 hPa WSW 3.0 mph /  4.8 km/h 10.0 mph /  16.1 km/h 70 % 0.00 in /  0 mm
08:46 79.8 °F /  26.6 °C 69.1 °F /  20.6 °C 29.91 in /  1012.8 hPa SW 5.0 mph /  8 km/h 9.0 mph /  14.5 km/h 70 % 0.00 in /  0 mm
08:51 80.1 °F /  26.7 °C 69.0 °F /  20.6 °C 29.91 in /  1012.8 hPa WSW 5.0 mph /  8 km/h 8.0 mph /  12.9 km/h 69 % 0.00 in /  0 mm
08:56 80.4 °F /  26.9 °C 69.3 °F /  20.7 °C 29.90 in /  1012.4 hPa SW 3.8 mph /  6.1 km/h 8.1 mph /  13 km/h 69 % 0.00 in /  0 mm
09:01 80.8 °F /  27.1 °C 69.2 °F /  20.7 °C 29.90 in /  1012.4 hPa WSW 5.2 mph /  8.4 km/h 8.1 mph /  13 km/h 68 % 0.00 in /  0 mm
09:06 81.1 °F /  27.3 °C 69.5 °F /  20.8 °C 29.90 in /  1012.4 hPa West 5.0 mph /  8 km/h 6.9 mph /  11.1 km/h 68 % 0.00 in /  0 mm
09:11 81.4 °F /  27.4 °C 69.8 °F /  21 °C 29.90 in /  1012.4 hPa SW 2.7 mph /  4.3 km/h 5.8 mph /  9.3 km/h 68 % 0.00 in /  0 mm
09:16 81.8 °F /  27.7 °C 69.8 °F /  21 °C 29.90 in /  1012.4 hPa SSW 3.6 mph /  5.8 km/h 5.8 mph /  9.3 km/h 67 % 0.00 in /  0 mm
09:21 82.1 °F /  27.8 °C 69.6 °F /  20.9 °C 29.90 in /  1012.4 hPa SW 4.4 mph /  7.1 km/h 9.2 mph /  14.8 km/h 66 % 0.00 in /  0 mm
09:26 82.6 °F /  28.1 °C 70.5 °F /  21.4 °C 29.90 in /  1012.4 hPa West 2.2 mph /  3.5 km/h 3.5 mph /  5.6 km/h 67 % 0.00 in /  0 mm
09:31 83.0 °F /  28.3 °C 70.0 °F /  21.1 °C 29.89 in /  1012.1 hPa SW 2.7 mph /  4.3 km/h 5.8 mph /  9.3 km/h 65 % 0.00 in /  0 mm
09:36 83.5 °F /  28.6 °C 70.5 °F /  21.4 °C 29.89 in /  1012.1 hPa WSW 1.4 mph /  2.3 km/h 3.5 mph /  5.6 km/h 65 % 0.00 in /  0 mm
09:41 84.1 °F /  28.9 °C 70.1 °F /  21.2 °C 29.89 in /  1012.1 hPa SW 1.4 mph /  2.3 km/h 3.5 mph /  5.6 km/h 63 % 0.00 in /  0 mm
09:46 84.7 °F /  29.3 °C 70.7 °F /  21.5 °C 29.89 in /  1012.1 hPa WSW 1.9 mph /  3.1 km/h 4.6 mph /  7.4 km/h 63 % 0.00 in /  0 mm
09:51 85.4 °F /  29.7 °C 69.9 °F /  21.1 °C 29.89 in /  1012.1 hPa WNW 2.0 mph /  3.2 km/h 3.5 mph /  5.6 km/h 60 % 0.00 in /  0 mm
09:56 86.1 °F /  30.1 °C 69.1 °F /  20.6 °C 29.88 in /  1011.7 hPa WSW 4.4 mph /  7.1 km/h 6.9 mph /  11.1 km/h 57 % 0.00 in /  0 mm
10:01 86.8 °F /  30.4 °C 68.2 °F /  20.1 °C 29.88 in /  1011.7 hPa WNW 2.3 mph /  3.7 km/h 5.8 mph /  9.3 km/h 54 % 0.00 in /  0 mm
10:06 87.5 °F /  30.8 °C 67.7 °F /  19.8 °C 29.88 in /  1011.7 hPa SW 6.3 mph /  10.1 km/h 10.4 mph /  16.7 km/h 52 % 0.00 in /  0 mm
10:11 88.1 °F /  31.2 °C 69.9 °F /  21.1 °C 29.88 in /  1011.7 hPa West 1.2 mph /  1.9 km/h 5.0 mph /  8 km/h 55 % 0.00 in /  0 mm
10:16 88.6 °F /  31.4 °C 68.2 °F /  20.1 °C 29.88 in /  1011.7 hPa WSW 3.4 mph /  5.5 km/h 5.0 mph /  8 km/h 51 % 0.00 in /  0 mm
10:21 89.2 °F /  31.8 °C 68.1 °F /  20.1 °C 29.88 in /  1011.7 hPa SW 2.4 mph /  3.9 km/h 3.5 mph /  5.6 km/h 50 % 0.00 in /  0 mm
10:26 89.6 °F /  32 °C 69.1 °F /  20.6 °C 29.88 in /  1011.7 hPa West 2.7 mph /  4.3 km/h 5.0 mph /  8 km/h 51 % 0.00 in /  0 mm
10:31 90.0 °F /  32.2 °C 67.1 °F /  19.5 °C 29.88 in /  1011.7 hPa WSW 5.8 mph /  9.3 km/h 8.1 mph /  13 km/h 47 % 0.00 in /  0 mm
10:36 90.3 °F /  32.4 °C 67.3 °F /  19.6 °C 29.88 in /  1011.7 hPa SW 5.9 mph /  9.5 km/h 8.1 mph /  13 km/h 47 % 0.00 in /  0 mm
10:41 90.6 °F /  32.6 °C 68.2 °F /  20.1 °C 29.88 in /  1011.7 hPa SSW 4.3 mph /  6.9 km/h 5.0 mph /  8 km/h 48 % 0.00 in /  0 mm
10:46 90.8 °F /  32.7 °C 66.5 °F /  19.2 °C 29.88 in /  1011.7 hPa WSW 7.4 mph /  11.9 km/h 12.7 mph /  20.4 km/h 45 % 0.00 in /  0 mm
10:47 90.8 °F /  32.7 °C 66.5 °F /  19.2 °C 29.88 in /  1011.7 hPa WSW 4.9 mph /  7.9 km/h 12.7 mph /  20.4 km/h 45 % 0.00 in /  0 mm
10:52 90.9 °F /  32.7 °C 67.3 °F /  19.6 °C 29.88 in /  1011.7 hPa SW 5.8 mph /  9.3 km/h 8.1 mph /  13 km/h 46 % 0.00 in /  0 mm
10:57 91.1 °F /  32.8 °C 66.8 °F /  19.3 °C 29.87 in /  1011.4 hPa West 4.8 mph /  7.7 km/h 10.4 mph /  16.7 km/h 45 % 0.00 in /  0 mm
11:02 91.3 °F /  32.9 °C 67.6 °F /  19.8 °C 29.87 in /  1011.4 hPa SW 4.9 mph /  7.9 km/h 6.9 mph /  11.1 km/h 46 % 0.00 in /  0 mm
11:07 91.5 °F /  33.1 °C 67.2 °F /  19.6 °C 29.87 in /  1011.4 hPa WSW 7.2 mph /  11.6 km/h 10.4 mph /  16.7 km/h 45 % 0.00 in /  0 mm
11:12 91.7 °F /  33.2 °C 67.3 °F /  19.6 °C 29.88 in /  1011.7 hPa SW 4.5 mph /  7.2 km/h 8.1 mph /  13 km/h 45 % 0.00 in /  0 mm
11:17 91.9 °F /  33.3 °C 66.9 °F /  19.4 °C 29.87 in /  1011.4 hPa West 5.0 mph /  8 km/h 11.5 mph /  18.5 km/h 44 % 0.00 in /  0 mm
11:22 92.0 °F /  33.3 °C 66.3 °F /  19.1 °C 29.87 in /  1011.4 hPa WNW 5.1 mph /  8.2 km/h 8.1 mph /  13 km/h 43 % 0.00 in /  0 mm
11:27 92.3 °F /  33.5 °C 68.5 °F /  20.3 °C 29.87 in /  1011.4 hPa WSW 5.6 mph /  9 km/h 9.2 mph /  14.8 km/h 46 % 0.00 in /  0 mm
11:28 92.3 °F /  33.5 °C 67.2 °F /  19.6 °C 29.87 in /  1011.4 hPa West 3.9 mph /  6.3 km/h 10.0 mph /  16.1 km/h 44 % 0.00 in /  0 mm
11:33 92.5 °F /  33.6 °C 68.1 °F /  20.1 °C 29.86 in /  1011.1 hPa WSW 1.7 mph /  2.7 km/h 10.4 mph /  16.7 km/h 45 % 0.00 in /  0 mm
11:39 92.7 °F /  33.7 °C 66.2 °F /  19 °C 29.86 in /  1011.1 hPa West 4.3 mph /  6.9 km/h 8.1 mph /  13 km/h 42 % 0.00 in /  0 mm
11:44 92.9 °F /  33.8 °C 66.4 °F /  19.1 °C 29.86 in /  1011.1 hPa WSW 7.8 mph /  12.6 km/h 10.4 mph /  16.7 km/h 42 % 0.00 in /  0 mm
11:47 93.0 °F /  33.9 °C 67.9 °F /  19.9 °C 29.86 in /  1011.1 hPa WSW 3.7 mph /  6 km/h 6.9 mph /  11.1 km/h 44 % 0.00 in /  0 mm
11:52 93.2 °F /  34 °C 66.7 °F /  19.3 °C 29.86 in /  1011.1 hPa WSW 7.1 mph /  11.4 km/h 10.4 mph /  16.7 km/h 42 % 0.00 in /  0 mm
11:57 93.4 °F /  34.1 °C 67.6 °F /  19.8 °C 29.86 in /  1011.1 hPa West 4.7 mph /  7.6 km/h 10.4 mph /  16.7 km/h 43 % 0.00 in /  0 mm
12:02 93.6 °F /  34.2 °C 67.1 °F /  19.5 °C 29.86 in /  1011.1 hPa WSW 3.8 mph /  6.1 km/h 7.0 mph /  11.3 km/h 42 % 0.00 in /  0 mm
12:07 93.8 °F /  34.3 °C 67.9 °F /  19.9 °C 29.86 in /  1011.1 hPa WSW 3.0 mph /  4.8 km/h 6.0 mph /  9.7 km/h 43 % 0.00 in /  0 mm
12:12 94.0 °F /  34.4 °C 68.1 °F /  20.1 °C 29.86 in /  1011.1 hPa NW 5.9 mph /  9.5 km/h 8.1 mph /  13 km/h 43 % 0.00 in /  0 mm
12:14 94.1 °F /  34.5 °C 66.8 °F /  19.3 °C 29.85 in /  1010.7 hPa WSW 4.8 mph /  7.7 km/h 10.4 mph /  16.7 km/h 41 % 0.00 in /  0 mm
12:19 94.5 °F /  34.7 °C 67.2 °F /  19.6 °C 29.85 in /  1010.7 hPa West 2.9 mph /  4.7 km/h 5.8 mph /  9.3 km/h 41 % 0.00 in /  0 mm
12:24 94.6 °F /  34.8 °C 68.0 °F /  20 °C 29.85 in /  1010.7 hPa WSW 2.4 mph /  3.9 km/h 4.6 mph /  7.4 km/h 42 % 0.00 in /  0 mm
12:29 94.9 °F /  34.9 °C 66.8 °F /  19.3 °C 29.85 in /  1010.7 hPa West 1.9 mph /  3.1 km/h 3.5 mph /  5.6 km/h 40 % 0.00 in /  0 mm
12:35 95.2 °F /  35.1 °C 68.5 °F /  20.3 °C 29.85 in /  1010.7 hPa WSW 6.1 mph /  9.8 km/h 7.0 mph /  11.3 km/h 42 % 0.00 in /  0 mm
12:40 95.3 °F /  35.2 °C 67.9 °F /  19.9 °C 29.85 in /  1010.7 hPa WSW 6.9 mph /  11.1 km/h 6.9 mph /  11.1 km/h 41 % 0.00 in /  0 mm
12:45 95.3 °F /  35.2 °C 66.4 °F /  19.1 °C 29.84 in /  1010.4 hPa WNW 1.4 mph /  2.3 km/h 4.6 mph /  7.4 km/h 39 % 0.00 in /  0 mm
12:50 95.5 °F /  35.3 °C 65.9 °F /  18.8 °C 29.84 in /  1010.4 hPa WSW 3.4 mph /  5.5 km/h 6.9 mph /  11.1 km/h 38 % 0.00 in /  0 mm
12:55 95.7 °F /  35.4 °C 66.8 °F /  19.3 °C 29.84 in /  1010.4 hPa SSW 4.5 mph /  7.2 km/h 8.1 mph /  13 km/h 39 % 0.00 in /  0 mm
13:00 95.9 °F /  35.5 °C 66.2 °F /  19 °C 29.84 in /  1010.4 hPa SW 3.9 mph /  6.3 km/h 6.9 mph /  11.1 km/h 38 % 0.00 in /  0 mm
13:05 96.2 °F /  35.7 °C 66.5 °F /  19.2 °C 29.84 in /  1010.4 hPa WSW 3.5 mph /  5.6 km/h 5.8 mph /  9.3 km/h 38 % 0.00 in /  0 mm
13:10 96.4 °F /  35.8 °C 65.9 °F /  18.8 °C 29.83 in /  1010 hPa West 5.4 mph /  8.7 km/h 8.1 mph /  13 km/h 37 % 0.00 in /  0 mm
13:15 96.5 °F /  35.8 °C 66.7 °F /  19.3 °C 29.83 in /  1010 hPa WNW 3.3 mph /  5.3 km/h 5.0 mph /  8 km/h 38 % 0.00 in /  0 mm
13:20 96.6 °F /  35.9 °C 63.6 °F /  17.6 °C 29.83 in /  1010 hPa WSW 6.3 mph /  10.1 km/h 10.4 mph /  16.7 km/h 34 % 0.00 in /  0 mm
13:25 96.7 °F /  35.9 °C 65.4 °F /  18.6 °C 29.83 in /  1010 hPa WSW 4.0 mph /  6.4 km/h 5.0 mph /  8 km/h 36 % 0.00 in /  0 mm
13:30 96.8 °F /  36 °C 66.2 °F /  19 °C 29.83 in /  1010 hPa West 1.3 mph /  2.1 km/h 3.5 mph /  5.6 km/h 37 % 0.00 in /  0 mm
13:35 97.1 °F /  36.2 °C 69.5 °F /  20.8 °C 29.83 in /  1010 hPa SSW 3.0 mph /  4.8 km/h 4.0 mph /  6.4 km/h 41 % 0.00 in /  0 mm
13:41 97.3 °F /  36.3 °C 71.1 °F /  21.7 °C 29.82 in /  1009.7 hPa SSW 1.8 mph /  2.9 km/h 3.5 mph /  5.6 km/h 43 % 0.00 in /  0 mm
13:46 97.0 °F /  36.1 °C 70.1 °F /  21.2 °C 29.82 in /  1009.7 hPa SSW 5.0 mph /  8 km/h 8.0 mph /  12.9 km/h 42 % 0.00 in /  0 mm
13:51 96.8 °F /  36 °C 69.9 °F /  21.1 °C 29.82 in /  1009.7 hPa SSW 3.0 mph /  4.8 km/h 10.0 mph /  16.1 km/h 42 % 0.00 in /  0 mm
13:56 96.9 °F /  36.1 °C 72.0 °F /  22.2 °C 29.82 in /  1009.7 hPa SSW 5.0 mph /  8 km/h 9.0 mph /  14.5 km/h 45 % 0.00 in /  0 mm
14:01 97.0 °F /  36.1 °C 71.5 °F /  21.9 °C 29.82 in /  1009.7 hPa South 0.8 mph /  1.3 km/h 6.9 mph /  11.1 km/h 44 % 0.00 in /  0 mm
14:06 97.1 °F /  36.2 °C 71.6 °F /  22 °C 29.82 in /  1009.7 hPa West 2.4 mph /  3.9 km/h 11.0 mph /  17.7 km/h 44 % 0.00 in /  0 mm
14:11 97.1 °F /  36.2 °C 70.2 °F /  21.2 °C 29.82 in /  1009.7 hPa SSW 4.9 mph /  7.9 km/h 8.1 mph /  13 km/h 42 % 0.00 in /  0 mm
14:16 97.1 °F /  36.2 °C 70.2 °F /  21.2 °C 29.82 in /  1009.7 hPa WSW 3.7 mph /  6 km/h 10.4 mph /  16.7 km/h 42 % 0.00 in /  0 mm
14:21 97.1 °F /  36.2 °C 70.2 °F /  21.2 °C 29.81 in /  1009.4 hPa SSW 2.0 mph /  3.2 km/h 8.1 mph /  13 km/h 42 % 0.00 in /  0 mm
14:26 96.9 °F /  36.1 °C 67.8 °F /  19.9 °C 29.81 in /  1009.4 hPa SW 5.9 mph /  9.5 km/h 11.5 mph /  18.5 km/h 39 % 0.00 in /  0 mm
14:31 96.9 °F /  36.1 °C 68.6 °F /  20.3 °C 29.81 in /  1009.4 hPa SSE 0.8 mph /  1.3 km/h 3.5 mph /  5.6 km/h 40 % 0.00 in /  0 mm
14:36 96.8 °F /  36 °C 67.8 °F /  19.9 °C 29.81 in /  1009.4 hPa SSW 4.9 mph /  7.9 km/h 12.7 mph /  20.4 km/h 39 % 0.00 in /  0 mm
14:41 96.8 °F /  36 °C 69.9 °F /  21.1 °C 29.81 in /  1009.4 hPa SSW 2.6 mph /  4.2 km/h 5.0 mph /  8 km/h 42 % 0.00 in /  0 mm
14:46 96.8 °F /  36 °C 67.8 °F /  19.9 °C 29.81 in /  1009.4 hPa SW 2.8 mph /  4.5 km/h 8.1 mph /  13 km/h 39 % 0.00 in /  0 mm
14:51 96.8 °F /  36 °C 68.5 °F /  20.3 °C 29.81 in /  1009.4 hPa SE 3.5 mph /  5.6 km/h 6.9 mph /  11.1 km/h 40 % 0.00 in /  0 mm
14:56 96.8 °F /  36 °C 67.8 °F /  19.9 °C 29.81 in /  1009.4 hPa SW 1.8 mph /  2.9 km/h 9.2 mph /  14.8 km/h 39 % 0.00 in /  0 mm
15:01 96.5 °F /  35.8 °C 68.9 °F /  20.5 °C 29.81 in /  1009.4 hPa SSW 3.1 mph /  5 km/h 8.1 mph /  13 km/h 41 % 0.00 in /  0 mm
15:06 96.2 °F /  35.7 °C 68.0 °F /  20 °C 29.81 in /  1009.4 hPa WSW 1.7 mph /  2.7 km/h 6.0 mph /  9.7 km/h 40 % 0.00 in /  0 mm
15:11 96.1 °F /  35.6 °C 67.9 °F /  19.9 °C 29.81 in /  1009.4 hPa WSW 5.1 mph /  8.2 km/h 7.0 mph /  11.3 km/h 40 % 0.00 in /  0 mm
15:16 96.2 °F /  35.7 °C 68.0 °F /  20 °C 29.81 in /  1009.4 hPa SSW 4.0 mph /  6.4 km/h 6.9 mph /  11.1 km/h 40 % 0.00 in /  0 mm
15:22 96.2 °F /  35.7 °C 67.2 °F /  19.6 °C 29.80 in /  1009 hPa SW 6.9 mph /  11.1 km/h 11.5 mph /  18.5 km/h 39 % 0.00 in /  0 mm
15:27 95.9 °F /  35.5 °C 66.2 °F /  19 °C 29.80 in /  1009 hPa WSW 3.3 mph /  5.3 km/h 11.5 mph /  18.5 km/h 38 % 0.00 in /  0 mm
15:32 95.8 °F /  35.4 °C 66.1 °F /  18.9 °C 29.80 in /  1009 hPa SSW 3.8 mph /  6.1 km/h 11.5 mph /  18.5 km/h 38 % 0.00 in /  0 mm
15:37 95.7 °F /  35.4 °C 67.5 °F /  19.7 °C 29.80 in /  1009 hPa ESE 2.3 mph /  3.7 km/h 4.6 mph /  7.4 km/h 40 % 0.00 in /  0 mm
15:42 95.6 °F /  35.3 °C 67.4 °F /  19.7 °C 29.80 in /  1009 hPa South 4.1 mph /  6.6 km/h 7.0 mph /  11.3 km/h 40 % 0.00 in /  0 mm
15:47 95.5 °F /  35.3 °C 68.1 °F /  20.1 °C 29.80 in /  1009 hPa SSW 1.0 mph /  1.6 km/h 4.6 mph /  7.4 km/h 41 % 0.00 in /  0 mm
15:52 95.4 °F /  35.2 °C 68.0 °F /  20 °C 29.80 in /  1009 hPa SW 2.1 mph /  3.4 km/h 4.6 mph /  7.4 km/h 41 % 0.00 in /  0 mm
15:57 95.4 °F /  35.2 °C 67.2 °F /  19.6 °C 29.80 in /  1009 hPa South 3.7 mph /  6 km/h 8.1 mph /  13 km/h 40 % 0.00 in /  0 mm
16:02 95.2 °F /  35.1 °C 67.1 °F /  19.5 °C 29.80 in /  1009 hPa SSW 2.8 mph /  4.5 km/h 5.8 mph /  9.3 km/h 40 % 0.00 in /  0 mm
16:07 95.1 °F /  35.1 °C 69.1 °F /  20.6 °C 29.80 in /  1009 hPa SSW 1.2 mph /  1.9 km/h 5.0 mph /  8 km/h 43 % 0.00 in /  0 mm
16:12 95.0 °F /  35 °C 67.6 °F /  19.8 °C 29.79 in /  1008.7 hPa SSW 0.7 mph /  1.1 km/h 9.2 mph /  14.8 km/h 41 % 0.00 in /  0 mm
16:17 94.7 °F /  34.8 °C 67.3 °F /  19.6 °C 29.80 in /  1009 hPa SSW 1.6 mph /  2.6 km/h 5.8 mph /  9.3 km/h 41 % 0.00 in /  0 mm
16:22 94.4 °F /  34.7 °C 67.1 °F /  19.5 °C 29.79 in /  1008.7 hPa SSW 2.0 mph /  3.2 km/h 4.6 mph /  7.4 km/h 41 % 0.00 in /  0 mm
16:27 94.2 °F /  34.6 °C 66.9 °F /  19.4 °C 29.80 in /  1009 hPa SSW 1.7 mph /  2.7 km/h 4.0 mph /  6.4 km/h 41 % 0.00 in /  0 mm
16:32 93.9 °F /  34.4 °C 67.3 °F /  19.6 °C 29.80 in /  1009 hPa South 6.0 mph /  9.7 km/h 11.5 mph /  18.5 km/h 42 % 0.00 in /  0 mm
16:38 93.6 °F /  34.2 °C 67.1 °F /  19.5 °C 29.80 in /  1009 hPa South 2.5 mph /  4 km/h 8.1 mph /  13 km/h 42 % 0.00 in /  0 mm
16:43 93.2 °F /  34 °C 66.7 °F /  19.3 °C 29.80 in /  1009 hPa South 1.1 mph /  1.8 km/h 3.5 mph /  5.6 km/h 42 % 0.00 in /  0 mm
16:48 92.8 °F /  33.8 °C 66.3 °F /  19.1 °C 29.80 in /  1009 hPa South 3.5 mph /  5.6 km/h 11.5 mph /  18.5 km/h 42 % 0.00 in /  0 mm
16:53 92.5 °F /  33.6 °C 66.7 °F /  19.3 °C 29.80 in /  1009 hPa South 1.7 mph /  2.7 km/h 5.8 mph /  9.3 km/h 43 % 0.00 in /  0 mm
16:58 92.2 °F /  33.4 °C 67.1 °F /  19.5 °C 29.80 in /  1009 hPa SW 2.4 mph /  3.9 km/h 4.0 mph /  6.4 km/h 44 % 0.00 in /  0 mm
17:03 92.1 °F /  33.4 °C 67.1 °F /  19.5 °C 29.80 in /  1009 hPa South 1.3 mph /  2.1 km/h 4.6 mph /  7.4 km/h 44 % 0.00 in /  0 mm
17:08 91.8 °F /  33.2 °C 66.8 °F /  19.3 °C 29.80 in /  1009 hPa SSW 2.9 mph /  4.7 km/h 6.9 mph /  11.1 km/h 44 % 0.00 in /  0 mm
17:13 91.2 °F /  32.9 °C 64.9 °F /  18.3 °C 29.80 in /  1009 hPa South 2.6 mph /  4.2 km/h 8.1 mph /  13 km/h 42 % 0.00 in /  0 mm
17:18 90.9 °F /  32.7 °C 65.3 °F /  18.5 °C 29.80 in /  1009 hPa SSW 3.6 mph /  5.8 km/h 7.0 mph /  11.3 km/h 43 % 0.00 in /  0 mm
17:23 90.6 °F /  32.6 °C 65.0 °F /  18.3 °C 29.80 in /  1009 hPa SSW 4.0 mph /  6.4 km/h 5.8 mph /  9.3 km/h 43 % 0.00 in /  0 mm
17:28 90.2 °F /  32.3 °C 65.3 °F /  18.5 °C 29.80 in /  1009 hPa SSW 2.3 mph /  3.7 km/h 3.5 mph /  5.6 km/h 44 % 0.00 in /  0 mm
17:33 89.9 °F /  32.2 °C 64.4 °F /  18 °C 29.79 in /  1008.7 hPa SW 2.8 mph /  4.5 km/h 5.8 mph /  9.3 km/h 43 % 0.00 in /  0 mm
17:38 89.5 °F /  31.9 °C 64.0 °F /  17.8 °C 29.80 in /  1009 hPa South 2.6 mph /  4.2 km/h 7.0 mph /  11.3 km/h 43 % 0.00 in /  0 mm
17:43 89.2 °F /  31.8 °C 63.8 °F /  17.7 °C 29.79 in /  1008.7 hPa SW 1.2 mph /  1.9 km/h 6.9 mph /  11.1 km/h 43 % 0.00 in /  0 mm
17:48 88.9 °F /  31.6 °C 63.5 °F /  17.5 °C 29.79 in /  1008.7 hPa SE 2.0 mph /  3.2 km/h 3.5 mph /  5.6 km/h 43 % 0.00 in /  0 mm
17:53 88.7 °F /  31.5 °C 63.3 °F /  17.4 °C 29.79 in /  1008.7 hPa SSE 4.1 mph /  6.6 km/h 9.2 mph /  14.8 km/h 43 % 0.00 in /  0 mm
17:58 88.4 °F /  31.3 °C 63.7 °F /  17.6 °C 29.78 in /  1008.4 hPa SSW 1.2 mph /  1.9 km/h 3.5 mph /  5.6 km/h 44 % 0.00 in /  0 mm
18:03 88.2 °F /  31.2 °C 63.5 °F /  17.5 °C 29.78 in /  1008.4 hPa South 1.0 mph /  1.6 km/h 3.5 mph /  5.6 km/h 44 % 0.00 in /  0 mm
18:08 88.0 °F /  31.1 °C 62.7 °F /  17.1 °C 29.78 in /  1008.4 hPa SW 4.6 mph /  7.4 km/h 8.1 mph /  13 km/h 43 % 0.00 in /  0 mm
18:13 87.8 °F /  31 °C 63.2 °F /  17.3 °C 29.78 in /  1008.4 hPa SSW 3.8 mph /  6.1 km/h 6.9 mph /  11.1 km/h 44 % 0.00 in /  0 mm
18:18 87.6 °F /  30.9 °C 63.0 °F /  17.2 °C 29.78 in /  1008.4 hPa South 4.1 mph /  6.6 km/h 8.1 mph /  13 km/h 44 % 0.00 in /  0 mm
18:23 87.4 °F /  30.8 °C 62.8 °F /  17.1 °C 29.78 in /  1008.4 hPa SSW 4.4 mph /  7.1 km/h 5.8 mph /  9.3 km/h 44 % 0.00 in /  0 mm
18:28 87.2 °F /  30.7 °C 62.6 °F /  17 °C 29.78 in /  1008.4 hPa SSE 2.4 mph /  3.9 km/h 6.9 mph /  11.1 km/h 44 % 0.00 in /  0 mm
18:33 86.9 °F /  30.5 °C 63.0 °F /  17.2 °C 29.78 in /  1008.4 hPa SSW 1.9 mph /  3.1 km/h 4.6 mph /  7.4 km/h 45 % 0.00 in /  0 mm
18:38 86.7 °F /  30.4 °C 62.8 °F /  17.1 °C 29.77 in /  1008 hPa SSW 3.5 mph /  5.6 km/h 5.8 mph /  9.3 km/h 45 % 0.00 in /  0 mm
18:43 86.4 °F /  30.2 °C 63.2 °F /  17.3 °C 29.78 in /  1008.4 hPa East 3.7 mph /  6 km/h 6.0 mph /  9.7 km/h 46 % 0.00 in /  0 mm
18:48 86.1 °F /  30.1 °C 63.5 °F /  17.5 °C 29.77 in /  1008 hPa SSE 3.2 mph /  5.1 km/h 8.1 mph /  13 km/h 47 % 0.00 in /  0 mm
18:53 85.8 °F /  29.9 °C 63.2 °F /  17.3 °C 29.77 in /  1008 hPa South 4.9 mph /  7.9 km/h 6.9 mph /  11.1 km/h 47 % 0.00 in /  0 mm
18:54 85.7 °F /  29.8 °C 63.1 °F /  17.3 °C 29.77 in /  1008 hPa SSW 4.3 mph /  6.9 km/h 6.9 mph /  11.1 km/h 47 % 0.00 in /  0 mm
18:59 85.4 °F /  29.7 °C 63.5 °F /  17.5 °C 29.77 in /  1008 hPa SSW 1.6 mph /  2.6 km/h 5.8 mph /  9.3 km/h 48 % 0.00 in /  0 mm
19:04 85.0 °F /  29.4 °C 63.1 °F /  17.3 °C 29.78 in /  1008.4 hPa SSW 3.7 mph /  6 km/h 6.9 mph /  11.1 km/h 48 % 0.00 in /  0 mm
19:09 84.6 °F /  29.2 °C 63.3 °F /  17.4 °C 29.78 in /  1008.4 hPa SSW 2.7 mph /  4.3 km/h 5.8 mph /  9.3 km/h 49 % 0.00 in /  0 mm
19:14 84.3 °F /  29.1 °C 63.1 °F /  17.3 °C 29.78 in /  1008.4 hPa SSW 4.3 mph /  6.9 km/h 5.8 mph /  9.3 km/h 49 % 0.00 in /  0 mm
19:19 83.9 °F /  28.8 °C 63.3 °F /  17.4 °C 29.78 in /  1008.4 hPa South 2.0 mph /  3.2 km/h 5.8 mph /  9.3 km/h 50 % 0.00 in /  0 mm
19:24 83.6 °F /  28.7 °C 63.6 °F /  17.6 °C 29.78 in /  1008.4 hPa SSW 2.0 mph /  3.2 km/h 3.5 mph /  5.6 km/h 51 % 0.00 in /  0 mm
19:29 83.3 °F /  28.5 °C 63.3 °F /  17.4 °C 29.78 in /  1008.4 hPa WSW 1.5 mph /  2.4 km/h 5.0 mph /  8 km/h 51 % 0.00 in /  0 mm
19:34 82.9 °F /  28.3 °C 63.5 °F /  17.5 °C 29.79 in /  1008.7 hPa SSW 3.5 mph /  5.6 km/h 5.0 mph /  8 km/h 52 % 0.00 in /  0 mm
19:39 82.5 °F /  28.1 °C 63.1 °F /  17.3 °C 29.78 in /  1008.4 hPa SSW 2.7 mph /  4.3 km/h 3.5 mph /  5.6 km/h 52 % 0.00 in /  0 mm
19:44 82.1 °F /  27.8 °C 63.3 °F /  17.4 °C 29.78 in /  1008.4 hPa SSW 4.1 mph /  6.6 km/h 6.0 mph /  9.7 km/h 53 % 0.00 in /  0 mm
19:49 81.7 °F /  27.6 °C 62.9 °F /  17.2 °C 29.77 in /  1008 hPa SSW 3.4 mph /  5.5 km/h 7.0 mph /  11.3 km/h 53 % 0.00 in /  0 mm
19:54 81.4 °F /  27.4 °C 63.2 °F /  17.3 °C 29.77 in /  1008 hPa SSW 2.2 mph /  3.5 km/h 4.0 mph /  6.4 km/h 54 % 0.00 in /  0 mm
19:59 81.1 °F /  27.3 °C 62.9 °F /  17.2 °C 29.78 in /  1008.4 hPa SW 3.4 mph /  5.5 km/h 5.8 mph /  9.3 km/h 54 % 0.00 in /  0 mm
20:04 80.7 °F /  27.1 °C 63.0 °F /  17.2 °C 29.78 in /  1008.4 hPa SSW 3.1 mph /  5 km/h 4.6 mph /  7.4 km/h 55 % 0.00 in /  0 mm
20:09 80.4 °F /  26.9 °C 62.8 °F /  17.1 °C 29.79 in /  1008.7 hPa SSW 3.1 mph /  5 km/h 9.2 mph /  14.8 km/h 55 % 0.00 in /  0 mm
20:14 80.1 °F /  26.7 °C 63.0 °F /  17.2 °C 29.79 in /  1008.7 hPa SW 1.7 mph /  2.7 km/h 3.5 mph /  5.6 km/h 56 % 0.00 in /  0 mm
20:15 80.1 °F /  26.7 °C 63.0 °F /  17.2 °C 29.79 in /  1008.7 hPa SW 1.6 mph /  2.6 km/h 4.6 mph /  7.4 km/h 56 % 0.00 in /  0 mm
20:20 79.8 °F /  26.6 °C 63.2 °F /  17.3 °C 29.78 in /  1008.4 hPa South 2.2 mph /  3.5 km/h 3.5 mph /  5.6 km/h 57 % 0.00 in /  0 mm
20:25 79.5 °F /  26.4 °C 63.9 °F /  17.7 °C 29.78 in /  1008.4 hPa South 2.1 mph /  3.4 km/h 3.5 mph /  5.6 km/h 59 % 0.00 in /  0 mm
20:30 79.2 °F /  26.2 °C 63.6 °F /  17.6 °C 29.78 in /  1008.4 hPa SSW 1.0 mph /  1.6 km/h 3.5 mph /  5.6 km/h 59 % 0.00 in /  0 mm
20:35 78.9 °F /  26.1 °C 63.8 °F /  17.7 °C 29.78 in /  1008.4 hPa SSW 2.1 mph /  3.4 km/h 4.6 mph /  7.4 km/h 60 % 0.00 in /  0 mm
20:40 78.6 °F /  25.9 °C 64.0 °F /  17.8 °C 29.78 in /  1008.4 hPa SSW 1.5 mph /  2.4 km/h 2.3 mph /  3.7 km/h 61 % 0.00 in /  0 mm
20:45 78.4 °F /  25.8 °C 63.8 °F /  17.7 °C 29.78 in /  1008.4 hPa SSW 0.1 mph /  0.2 km/h 3.5 mph /  5.6 km/h 61 % 0.00 in /  0 mm
20:50 78.2 °F /  25.7 °C 63.6 °F /  17.6 °C 29.78 in /  1008.4 hPa SW 1.2 mph /  1.9 km/h 2.3 mph /  3.7 km/h 61 % 0.00 in /  0 mm
20:55 77.9 °F /  25.5 °C 63.8 °F /  17.7 °C 29.79 in /  1008.7 hPa SSW 1.4 mph /  2.3 km/h 3.5 mph /  5.6 km/h 62 % 0.00 in /  0 mm
21:00 77.7 °F /  25.4 °C 63.6 °F /  17.6 °C 29.79 in /  1008.7 hPa WSW 2.8 mph /  4.5 km/h 5.0 mph /  8 km/h 62 % 0.00 in /  0 mm
21:05 77.5 °F /  25.3 °C 63.9 °F /  17.7 °C 29.79 in /  1008.7 hPa SW 1.2 mph /  1.9 km/h 3.5 mph /  5.6 km/h 63 % 0.00 in /  0 mm
21:10 77.4 °F /  25.2 °C 63.8 °F /  17.7 °C 29.79 in /  1008.7 hPa SSW 1.6 mph /  2.6 km/h 2.3 mph /  3.7 km/h 63 % 0.00 in /  0 mm
21:15 77.2 °F /  25.1 °C 64.1 °F /  17.8 °C 29.79 in /  1008.7 hPa WSW 0.4 mph /  0.6 km/h 3.5 mph /  5.6 km/h 64 % 0.00 in /  0 mm
21:20 77.0 °F /  25 °C 63.9 °F /  17.7 °C 29.78 in /  1008.4 hPa SSW 2.4 mph /  3.9 km/h 3.5 mph /  5.6 km/h 64 % 0.00 in /  0 mm
21:25 76.9 °F /  24.9 °C 63.8 °F /  17.7 °C 29.78 in /  1008.4 hPa SW 0.8 mph /  1.3 km/h 3.5 mph /  5.6 km/h 64 % 0.00 in /  0 mm
21:31 76.8 °F /  24.9 °C 64.1 °F /  17.8 °C 29.78 in /  1008.4 hPa SW 2.0 mph /  3.2 km/h 9.0 mph /  14.5 km/h 65 % 0.00 in /  0 mm
21:36 76.7 °F /  24.8 °C 64.0 °F /  17.8 °C 29.78 in /  1008.4 hPa SW 2.0 mph /  3.2 km/h 8.0 mph /  12.9 km/h 65 % 0.00 in /  0 mm
21:41 76.6 °F /  24.8 °C 64.0 °F /  17.8 °C 29.79 in /  1008.7 hPa SW 1.0 mph /  1.6 km/h 7.0 mph /  11.3 km/h 65 % 0.00 in /  0 mm
21:46 76.6 °F /  24.8 °C 64.4 °F /  18 °C 29.79 in /  1008.7 hPa SW 1.0 mph /  1.6 km/h 8.0 mph /  12.9 km/h 66 % 0.00 in /  0 mm
21:51 76.7 °F /  24.8 °C 64.5 °F /  18.1 °C 29.79 in /  1008.7 hPa SSW 3.0 mph /  4.8 km/h 10.0 mph /  16.1 km/h 66 % 0.00 in /  0 mm
21:55 76.8 °F /  24.9 °C 64.6 °F /  18.1 °C 29.79 in /  1008.7 hPa SSW 2.0 mph /  3.2 km/h 13.0 mph /  20.9 km/h 66 % 0.00 in /  0 mm
22:01 76.9 °F /  24.9 °C 64.2 °F /  17.9 °C 29.80 in /  1009 hPa SW 4.6 mph /  7.4 km/h 8.1 mph /  13 km/h 65 % 0.00 in /  0 mm
22:06 77.0 °F /  25 °C 64.4 °F /  18 °C 29.79 in /  1008.7 hPa SW 5.0 mph /  8 km/h 13.0 mph /  20.9 km/h 65 % 0.00 in /  0 mm
22:11 77.2 °F /  25.1 °C 64.5 °F /  18.1 °C 29.80 in /  1009 hPa SW 2.0 mph /  3.2 km/h 6.0 mph /  9.7 km/h 65 % 0.00 in /  0 mm
22:16 77.3 °F /  25.2 °C 64.6 °F /  18.1 °C 29.79 in /  1008.7 hPa SW 3.0 mph /  4.8 km/h 10.0 mph /  16.1 km/h 65 % 0.00 in /  0 mm
22:21 77.4 °F /  25.2 °C 64.7 °F /  18.2 °C 29.80 in /  1009 hPa SW 3.0 mph /  4.8 km/h 7.0 mph /  11.3 km/h 65 % 0.00 in /  0 mm
22:26 77.5 °F /  25.3 °C 64.4 °F /  18 °C 29.80 in /  1009 hPa SW 6.0 mph /  9.7 km/h 12.0 mph /  19.3 km/h 64 % 0.00 in /  0 mm
22:31 77.6 °F /  25.3 °C 64.9 °F /  18.3 °C 29.80 in /  1009 hPa SW 3.0 mph /  4.8 km/h 8.0 mph /  12.9 km/h 65 % 0.00 in /  0 mm
22:36 77.7 °F /  25.4 °C 65.0 °F /  18.3 °C 29.80 in /  1009 hPa SW 5.0 mph /  8 km/h 12.0 mph /  19.3 km/h 65 % 0.00 in /  0 mm
22:41 77.8 °F /  25.4 °C 65.1 °F /  18.4 °C 29.80 in /  1009 hPa SW 6.0 mph /  9.7 km/h 14.0 mph /  22.5 km/h 65 % 0.00 in /  0 mm
22:46 78.0 °F /  25.6 °C 65.7 °F /  18.7 °C 29.80 in /  1009 hPa SW 3.0 mph /  4.8 km/h 10.0 mph /  16.1 km/h 66 % 0.00 in /  0 mm
22:51 78.2 °F /  25.7 °C 65.5 °F /  18.6 °C 29.80 in /  1009 hPa SW 10.0 mph /  16.1 km/h 20.0 mph /  32.2 km/h 65 % 0.00 in /  0 mm
22:56 78.5 °F /  25.8 °C 65.7 °F /  18.7 °C 29.80 in /  1009 hPa SW 2.0 mph /  3.2 km/h 18.0 mph /  29 km/h 65 % 0.00 in /  0 mm
23:01 78.7 °F /  25.9 °C 65.9 °F /  18.8 °C 29.80 in /  1009 hPa SW 5.5 mph /  8.9 km/h 7.0 mph /  11.3 km/h 65 % 0.00 in /  0 mm
23:05 78.8 °F /  26 °C 66.0 °F /  18.9 °C 29.80 in /  1009 hPa WSW 8.9 mph /  14.3 km/h 10.4 mph /  16.7 km/h 65 % 0.00 in /  0 mm
23:11 78.9 °F /  26.1 °C 66.1 °F /  18.9 °C 29.80 in /  1009 hPa SW 5.0 mph /  8 km/h 14.0 mph /  22.5 km/h 65 % 0.00 in /  0 mm
23:16 78.9 °F /  26.1 °C 66.1 °F /  18.9 °C 29.80 in /  1009 hPa SSW 6.5 mph /  10.5 km/h 14.0 mph /  22.5 km/h 65 % 0.00 in /  0 mm
23:21 79.0 °F /  26.1 °C 66.2 °F /  19 °C 29.80 in /  1009 hPa South 8.1 mph /  13 km/h 17.3 mph /  27.8 km/h 65 % 0.00 in /  0 mm
23:26 79.1 °F /  26.2 °C 66.3 °F /  19.1 °C 29.80 in /  1009 hPa SW 4.7 mph /  7.6 km/h 10.4 mph /  16.7 km/h 65 % 0.00 in /  0 mm
23:31 79.1 °F /  26.2 °C 66.3 °F /  19.1 °C 29.80 in /  1009 hPa WSW 7.4 mph /  11.9 km/h 17.3 mph /  27.8 km/h 65 % 0.00 in /  0 mm
23:36 79.0 °F /  26.1 °C 66.2 °F /  19 °C 29.80 in /  1009 hPa SW 5.3 mph /  8.5 km/h 9.2 mph /  14.8 km/h 65 % 0.00 in /  0 mm
23:41 79.1 °F /  26.2 °C 66.3 °F /  19.1 °C 29.81 in /  1009.4 hPa WSW 4.3 mph /  6.9 km/h 11.5 mph /  18.5 km/h 65 % 0.00 in /  0 mm
23:46 79.1 °F /  26.2 °C 66.3 °F /  19.1 °C 29.81 in /  1009.4 hPa SW 5.0 mph /  8 km/h 10.0 mph /  16.1 km/h 65 % 0.00 in /  0 mm
23:51 79.1 °F /  26.2 °C 66.3 °F /  19.1 °C 29.80 in /  1009 hPa SW 4.0 mph /  6.4 km/h 8.1 mph /  13 km/h 65 % 0.00 in /  0 mm
23:56 79.0 °F /  26.1 °C 66.7 °F /  19.3 °C 29.80 in /  1009 hPa West 6.1 mph /  9.8 km/h 11.5 mph /  18.5 km/h 66 % 0.00 in /  0 mm
23:57 79.0 °F /  26.1 °C 66.7 °F /  19.3 °C 29.80 in /  1009 hPa WSW 2.8 mph /  4.5 km/h 6.0 mph /  9.7 km/h 66 % 0.00 in /  0 mm
Crab Meadow Weather
Compliments of Weather Underground - 3 mb

Script developed by  Jim McMurry - jmcmurry@mwt.net Adapted for the template by  Wim van der Kuil - Leuven-Template.eu

Recycling: Out of every $10 spent buying things, $1 (10%) goes for packaging that is thrown away. Packaging represents about 65% of household trash.